createdAt,value
2018-04-29T00:00:35.313Z,5.40
2018-04-29T00:01:35.327Z,7.50
2018-04-29T00:02:35.340Z,6.50
2018-04-29T00:03:35.354Z,6.10
2018-04-29T00:04:35.366Z,9.10
2018-04-29T00:05:35.381Z,7.40
2018-04-29T00:06:35.394Z,4.00
2018-04-29T00:07:35.411Z,5.80
2018-04-29T00:08:35.422Z,8.10
2018-04-29T00:09:35.436Z,10.00
2018-04-29T00:10:35.451Z,7.10
2018-04-29T00:11:35.463Z,6.80
2018-04-29T00:12:35.477Z,6.40
2018-04-29T00:13:35.490Z,4.80
2018-04-29T00:14:35.503Z,8.50
2018-04-29T00:15:35.517Z,11.40
2018-04-29T00:16:35.530Z,7.00
2018-04-29T00:17:35.544Z,10.10
2018-04-29T00:18:35.559Z,8.80
2018-04-29T00:19:35.576Z,6.70
2018-04-29T00:20:35.583Z,6.00
2018-04-29T00:21:35.597Z,6.00
2018-04-29T00:22:35.605Z,5.10
2018-04-29T00:23:35.623Z,5.70
2018-04-29T00:24:35.631Z,4.70
2018-04-29T00:25:35.646Z,5.80
2018-04-29T00:26:35.659Z,4.90
2018-04-29T00:27:35.673Z,6.30
2018-04-29T00:28:35.687Z,7.40
2018-04-29T00:29:35.699Z,6.00
2018-04-29T00:30:35.713Z,7.80
2018-04-29T00:31:35.726Z,7.60
2018-04-29T00:32:35.738Z,8.80
2018-04-29T00:33:35.753Z,8.50
2018-04-29T00:34:35.766Z,5.90
2018-04-29T00:35:35.780Z,6.20
2018-04-29T00:36:35.794Z,5.70
2018-04-29T00:37:35.805Z,6.60
2018-04-29T00:38:35.896Z,9.00
2018-04-29T00:39:35.836Z,6.60
2018-04-29T00:40:35.845Z,7.30
2018-04-29T00:41:35.858Z,5.50
2018-04-29T00:42:35.874Z,8.10
2018-04-29T00:43:35.893Z,8.90
2018-04-29T00:44:35.899Z,7.00
2018-04-29T00:45:35.913Z,7.80
2018-04-29T00:46:35.930Z,7.00
2018-04-29T00:47:35.942Z,4.40
2018-04-29T00:48:35.953Z,5.70
2018-04-29T00:49:35.968Z,4.10
2018-04-29T00:50:35.982Z,9.30
2018-04-29T00:51:35.994Z,8.60
2018-04-29T00:52:36.009Z,5.70
2018-04-29T00:53:36.020Z,3.60
2018-04-29T00:54:36.037Z,4.80
2018-04-29T00:55:36.054Z,8.00
2018-04-29T00:56:36.061Z,9.80
2018-04-29T00:57:36.073Z,5.40
2018-04-29T00:58:36.089Z,6.30
2018-04-29T00:59:36.101Z,6.40
2018-04-29T01:00:36.114Z,6.40
2018-04-29T01:01:36.127Z,4.90
2018-04-29T01:02:36.142Z,3.60
2018-04-29T01:03:36.156Z,4.70
2018-04-29T01:04:36.172Z,5.90
2018-04-29T01:05:36.185Z,5.30
2018-04-29T01:06:36.200Z,5.90
2018-04-29T01:07:36.210Z,5.00
2018-04-29T01:08:36.224Z,3.40
2018-04-29T01:09:36.241Z,4.60
2018-04-29T01:10:36.250Z,7.80
2018-04-29T01:11:36.263Z,7.00
2018-04-29T01:12:36.276Z,6.60
2018-04-29T01:13:36.294Z,6.00
2018-04-29T01:14:36.304Z,10.90
2018-04-29T01:15:36.316Z,5.40
2018-04-29T01:16:36.329Z,10.20
2018-04-29T01:17:36.345Z,4.80
2018-04-29T01:18:36.358Z,7.10
2018-04-29T01:19:36.371Z,9.20
2018-04-29T01:20:36.383Z,10.20
2018-04-29T01:21:36.397Z,4.40
2018-04-29T01:22:36.411Z,5.10
2018-04-29T01:23:36.428Z,6.50
2018-04-29T01:24:36.436Z,8.30
2018-04-29T01:25:36.456Z,6.00
2018-04-29T01:26:36.463Z,6.20
2018-04-29T01:27:36.478Z,7.30
2018-04-29T01:28:36.492Z,5.70
2018-04-29T01:29:36.505Z,5.00
2018-04-29T01:30:36.520Z,5.50
2018-04-29T01:31:36.531Z,4.10
2018-04-29T01:32:36.548Z,5.40
2018-04-29T01:33:36.557Z,6.10
2018-04-29T01:34:36.572Z,5.40
2018-04-29T01:35:36.584Z,5.20
2018-04-29T01:36:36.597Z,6.20
2018-04-29T01:37:36.611Z,9.20
2018-04-29T01:38:36.625Z,6.30
2018-04-29T01:39:36.637Z,8.00
2018-04-29T01:40:36.649Z,9.20
2018-04-29T01:41:36.660Z,9.40
2018-04-29T01:42:36.675Z,5.30
2018-04-29T01:43:36.688Z,6.10
2018-04-29T01:44:36.700Z,7.20
2018-04-29T01:45:36.715Z,7.90
2018-04-29T01:46:36.737Z,9.40
2018-04-29T01:47:36.739Z,10.50
2018-04-29T01:48:36.752Z,7.50
2018-04-29T01:49:36.766Z,5.90
2018-04-29T01:50:36.783Z,5.40
2018-04-29T01:51:36.870Z,3.90
2018-04-29T01:52:36.807Z,6.90
2018-04-29T01:53:36.817Z,7.70
2018-04-29T01:54:36.829Z,6.90
2018-04-29T01:55:36.845Z,6.80
2018-04-29T01:56:36.857Z,6.40
2018-04-29T01:57:36.869Z,5.20
2018-04-29T01:58:36.882Z,4.50
2018-04-29T01:59:36.894Z,6.40
2018-04-29T02:00:36.907Z,4.90
2018-04-29T02:01:36.921Z,6.30
2018-04-29T02:02:36.935Z,3.50
2018-04-29T02:03:36.949Z,6.40
2018-04-29T02:04:36.957Z,4.40
2018-04-29T02:05:36.972Z,6.10
2018-04-29T02:06:36.986Z,5.60
2018-04-29T02:07:36.998Z,6.90
2018-04-29T02:08:37.010Z,6.50
2018-04-29T02:09:37.027Z,5.40
2018-04-29T02:10:37.039Z,4.80
2018-04-29T02:11:37.051Z,5.10
2018-04-29T02:12:37.067Z,4.40
2018-04-29T02:13:37.075Z,6.90
2018-04-29T02:14:37.088Z,7.70
2018-04-29T02:15:37.102Z,5.10
2018-04-29T02:16:37.119Z,7.90
2018-04-29T02:17:37.126Z,5.50
2018-04-29T02:18:37.140Z,5.00
2018-04-29T02:19:37.155Z,6.10
2018-04-29T02:20:37.166Z,4.40
2018-04-29T02:21:37.180Z,7.20
2018-04-29T02:22:37.195Z,4.70
2018-04-29T02:23:37.206Z,4.30
2018-04-29T02:24:37.216Z,7.90
2018-04-29T02:25:37.232Z,4.30
2018-04-29T02:26:37.245Z,4.80
2018-04-29T02:27:37.259Z,7.00
2018-04-29T02:28:37.270Z,4.90
2018-04-29T02:29:37.290Z,7.30
2018-04-29T02:30:37.298Z,7.40
2018-04-29T02:31:37.310Z,7.30
2018-04-29T02:32:37.325Z,6.00
2018-04-29T02:33:37.338Z,3.20
2018-04-29T02:34:37.350Z,8.20
2018-04-29T02:35:37.368Z,8.10
2018-04-29T02:36:37.375Z,9.00
2018-04-29T02:37:37.388Z,5.70
2018-04-29T02:38:37.406Z,6.60
2018-04-29T02:39:37.416Z,5.70
2018-04-29T02:40:37.432Z,5.60
2018-04-29T02:41:37.442Z,8.70
2018-04-29T02:42:37.454Z,6.90
2018-04-29T02:43:37.468Z,7.80
2018-04-29T02:44:37.476Z,5.70
2018-04-29T02:45:37.491Z,6.40
2018-04-29T02:46:37.509Z,5.10
2018-04-29T02:47:37.519Z,4.90
2018-04-29T02:48:37.532Z,4.50
2018-04-29T02:49:37.547Z,4.80
2018-04-29T02:50:37.558Z,6.90
2018-04-29T02:51:37.570Z,8.20
2018-04-29T02:52:37.583Z,5.00
2018-04-29T02:53:37.596Z,7.30
2018-04-29T02:54:37.610Z,4.20
2018-04-29T02:55:37.621Z,5.10
2018-04-29T02:56:37.637Z,6.80
2018-04-29T02:57:37.646Z,7.60
2018-04-29T02:58:37.659Z,8.60
2018-04-29T02:59:37.672Z,5.10
2018-04-29T03:00:37.693Z,5.20
2018-04-29T03:01:37.698Z,5.00
2018-04-29T03:02:37.716Z,6.70
2018-04-29T03:03:37.725Z,6.30
2018-04-29T03:04:37.741Z,4.30
2018-04-29T03:05:37.748Z,6.30
2018-04-29T03:06:37.763Z,4.30
2018-04-29T03:07:37.777Z,5.80
2018-04-29T03:08:37.787Z,4.70
2018-04-29T03:09:37.798Z,4.00
2018-04-29T03:10:37.814Z,5.70
2018-04-29T03:11:37.828Z,5.20
2018-04-29T03:12:37.838Z,4.90
2018-04-29T03:13:37.851Z,4.60
2018-04-29T03:14:37.865Z,5.70
2018-04-29T03:15:37.877Z,6.30
2018-04-29T03:16:37.890Z,4.00
2018-04-29T03:17:37.902Z,5.90
2018-04-29T03:18:37.917Z,6.20
2018-04-29T03:19:37.930Z,7.20
2018-04-29T03:20:37.942Z,6.50
2018-04-29T03:21:37.956Z,7.10
2018-04-29T03:22:37.971Z,5.80
2018-04-29T03:23:37.980Z,8.20
2018-04-29T03:24:37.993Z,4.30
2018-04-29T03:25:38.007Z,9.30
2018-04-29T03:26:38.020Z,7.30
2018-04-29T03:27:38.033Z,5.10
2018-04-29T03:28:38.046Z,6.00
2018-04-29T03:29:38.060Z,6.60
2018-04-29T03:30:38.073Z,6.10
2018-04-29T03:31:38.085Z,5.60
2018-04-29T03:32:38.096Z,5.40
2018-04-29T03:33:38.110Z,5.50
2018-04-29T03:34:38.122Z,5.20
2018-04-29T03:35:38.135Z,7.30
2018-04-29T03:36:38.147Z,4.80
2018-04-29T03:37:38.162Z,4.90
2018-04-29T03:38:38.177Z,4.80
2018-04-29T03:39:38.188Z,6.10
2018-04-29T03:40:38.199Z,8.70
2018-04-29T03:41:38.213Z,7.10
2018-04-29T03:42:38.225Z,6.00
2018-04-29T03:43:38.239Z,8.00
2018-04-29T03:44:38.252Z,2.90
2018-04-29T03:45:38.264Z,4.50
2018-04-29T03:46:38.276Z,3.30
2018-04-29T03:47:38.288Z,5.60
2018-04-29T03:48:38.300Z,3.20
2018-04-29T03:49:38.314Z,9.10
2018-04-29T03:50:38.326Z,5.20
2018-04-29T03:51:38.340Z,6.00
2018-04-29T03:52:38.351Z,6.00
2018-04-29T03:53:38.369Z,7.70
2018-04-29T03:54:38.377Z,5.90
2018-04-29T03:55:38.392Z,5.20
2018-04-29T03:56:38.402Z,5.60
2018-04-29T03:57:38.415Z,7.30
2018-04-29T03:58:38.429Z,3.30
2018-04-29T03:59:38.441Z,5.70
2018-04-29T04:00:38.454Z,6.00
2018-04-29T04:01:38.466Z,5.30
2018-04-29T04:02:38.504Z,6.20
2018-04-29T04:03:38.491Z,6.10
2018-04-29T04:04:38.504Z,5.40
2018-04-29T04:05:38.516Z,9.70
2018-04-29T04:06:38.528Z,5.40
2018-04-29T04:07:38.543Z,5.30
2018-04-29T04:08:38.554Z,7.60
2018-04-29T04:09:38.590Z,7.10
2018-04-29T04:10:38.580Z,6.70
2018-04-29T04:11:38.591Z,5.80
2018-04-29T04:12:38.603Z,6.10
2018-04-29T04:13:38.617Z,4.50
2018-04-29T04:14:38.629Z,9.70
2018-04-29T04:15:38.642Z,5.40
2018-04-29T04:16:38.661Z,5.70
2018-04-29T04:17:38.668Z,3.70
2018-04-29T04:18:38.683Z,5.80
2018-04-29T04:19:38.694Z,5.30
2018-04-29T04:20:38.704Z,7.20
2018-04-29T04:21:38.718Z,7.00
2018-04-29T04:22:38.736Z,4.00
2018-04-29T04:23:38.755Z,5.10
2018-04-29T04:24:38.755Z,4.40
2018-04-29T04:25:38.770Z,4.00
2018-04-29T04:26:38.784Z,7.60
2018-04-29T04:27:38.794Z,2.80
2018-04-29T04:28:38.807Z,2.90
2018-04-29T04:29:38.818Z,3.90
2018-04-29T04:30:38.830Z,4.70
2018-04-29T04:31:38.842Z,2.60
2018-04-29T04:32:38.855Z,6.50
2018-04-29T04:33:38.866Z,3.30
2018-04-29T04:34:38.879Z,4.50
2018-04-29T04:35:38.893Z,4.30
2018-04-29T04:36:38.908Z,3.40
2018-04-29T04:37:38.917Z,4.90
2018-04-29T04:38:38.933Z,4.90
2018-04-29T04:39:38.941Z,2.70
2018-04-29T04:40:38.958Z,3.50
2018-04-29T04:41:38.970Z,5.50
2018-04-29T04:42:38.980Z,3.00
2018-04-29T04:43:38.991Z,3.10
2018-04-29T04:44:39.002Z,3.30
2018-04-29T04:45:39.017Z,2.90
2018-04-29T04:46:39.027Z,4.80
2018-04-29T04:47:39.045Z,2.80
2018-04-29T04:49:39.065Z,3.50
2018-04-29T04:50:39.175Z,4.60
2018-04-29T04:51:39.091Z,4.20
2018-04-29T04:52:39.102Z,2.40
2018-04-29T04:53:39.118Z,3.70
2018-04-29T04:54:39.126Z,3.40
2018-04-29T04:55:39.144Z,4.60
2018-04-29T04:56:39.153Z,2.10
2018-04-29T04:57:39.165Z,2.10
2018-04-29T04:58:39.178Z,2.20
2018-04-29T04:59:39.191Z,2.30
2018-04-29T05:00:39.205Z,4.60
2018-04-29T05:01:39.216Z,2.50
2018-04-29T05:02:39.228Z,3.60
2018-04-29T05:03:39.240Z,2.80
2018-04-29T05:04:39.251Z,3.10
2018-04-29T05:05:39.268Z,4.30
2018-04-29T05:06:39.277Z,1.50
2018-04-29T05:07:39.290Z,2.10
2018-04-29T05:08:39.302Z,1.80
2018-04-29T05:09:39.315Z,4.90
2018-04-29T05:10:39.327Z,4.10
2018-04-29T05:11:39.340Z,2.00
2018-04-29T05:12:39.352Z,2.30
2018-04-29T05:13:39.388Z,1.70
2018-04-29T05:14:39.379Z,2.20
2018-04-29T05:15:39.391Z,2.30
2018-04-29T05:16:39.403Z,1.80
2018-04-29T05:17:39.416Z,2.60
2018-04-29T05:18:39.430Z,1.90
2018-04-29T05:19:39.443Z,3.00
2018-04-29T05:20:39.461Z,2.30
2018-04-29T05:21:39.468Z,3.20
2018-04-29T05:22:39.481Z,3.30
2018-04-29T05:23:39.494Z,5.40
2018-04-29T05:24:39.505Z,2.80
2018-04-29T05:25:39.522Z,2.60
2018-04-29T05:26:39.533Z,3.10
2018-04-29T05:27:39.545Z,1.50
2018-04-29T05:28:39.558Z,2.30
2018-04-29T05:29:39.569Z,2.20
2018-04-29T05:30:39.585Z,3.50
2018-04-29T05:31:39.596Z,2.10
2018-04-29T05:32:39.610Z,2.10
2018-04-29T05:33:39.624Z,2.00
2018-04-29T05:34:39.639Z,2.50
2018-04-29T05:35:39.648Z,2.90
2018-04-29T05:36:39.664Z,1.80
2018-04-29T05:37:39.674Z,2.90
2018-04-29T05:38:39.686Z,2.20
2018-04-29T05:39:39.700Z,1.70
2018-04-29T05:40:39.710Z,2.50
2018-04-29T05:41:39.722Z,2.40
2018-04-29T05:42:39.738Z,2.40
2018-04-29T05:43:39.753Z,2.00
2018-04-29T05:44:39.766Z,2.90
2018-04-29T05:45:39.776Z,1.70
2018-04-29T05:46:39.788Z,1.80
2018-04-29T05:47:39.801Z,2.60
2018-04-29T05:48:39.813Z,2.70
2018-04-29T05:49:39.826Z,2.00
2018-04-29T05:50:39.840Z,4.70
2018-04-29T05:51:39.852Z,3.10
2018-04-29T05:52:39.866Z,4.80
2018-04-29T05:53:39.881Z,3.20
2018-04-29T05:54:39.892Z,3.60
2018-04-29T05:55:39.905Z,2.70
2018-04-29T05:56:39.916Z,1.50
2018-04-29T05:57:39.935Z,3.30
2018-04-29T05:58:39.944Z,2.00
2018-04-29T05:59:39.956Z,2.80
2018-04-29T06:00:39.969Z,3.50
2018-04-29T06:01:39.982Z,1.80
2018-04-29T06:02:39.995Z,2.00
2018-04-29T06:03:40.009Z,1.80
2018-04-29T06:04:40.021Z,1.80
2018-04-29T06:05:40.035Z,2.50
2018-04-29T06:06:40.188Z,3.10
2018-04-29T06:07:40.062Z,2.10
2018-04-29T06:08:40.074Z,1.90
2018-04-29T06:09:40.090Z,3.50
2018-04-29T06:10:40.109Z,6.70
2018-04-29T06:11:40.113Z,3.10
2018-04-29T06:12:40.126Z,2.40
2018-04-29T06:13:40.140Z,2.40
2018-04-29T06:14:40.153Z,1.90
2018-04-29T06:15:40.166Z,2.00
2018-04-29T06:16:40.183Z,2.30
2018-04-29T06:17:40.192Z,2.20
2018-04-29T06:18:40.205Z,2.10
2018-04-29T06:19:40.220Z,2.20
2018-04-29T06:20:40.230Z,2.30
2018-04-29T06:21:40.244Z,2.50
2018-04-29T06:22:40.256Z,2.90
2018-04-29T06:23:40.270Z,3.50
2018-04-29T06:24:40.283Z,2.90
2018-04-29T06:25:40.298Z,3.10
2018-04-29T06:26:40.309Z,2.70
2018-04-29T06:27:40.324Z,3.40
2018-04-29T06:28:40.336Z,6.60
2018-04-29T06:29:40.348Z,3.00
2018-04-29T06:30:40.362Z,3.50
2018-04-29T06:31:40.373Z,3.60
2018-04-29T06:32:40.393Z,4.20
2018-04-29T06:33:40.403Z,6.10
2018-04-29T06:34:40.414Z,4.60
2018-04-29T06:35:40.427Z,6.50
2018-04-29T06:36:40.440Z,6.30
2018-04-29T06:37:40.453Z,2.40
2018-04-29T06:38:40.469Z,3.30
2018-04-29T06:39:40.480Z,2.70
2018-04-29T06:40:40.495Z,3.90
2018-04-29T06:41:40.507Z,3.80
2018-04-29T06:42:40.519Z,5.50
2018-04-29T06:43:40.534Z,4.50
2018-04-29T06:44:40.546Z,2.70
2018-04-29T06:45:40.561Z,4.30
2018-04-29T06:46:40.572Z,2.20
2018-04-29T06:47:40.585Z,3.40
2018-04-29T06:48:40.598Z,2.60
2018-04-29T06:49:40.614Z,3.40
2018-04-29T06:50:40.711Z,3.10
2018-04-29T06:51:40.639Z,2.40
2018-04-29T06:52:40.651Z,2.40
2018-04-29T06:53:40.666Z,2.30
2018-04-29T06:54:40.682Z,3.10
2018-04-29T06:55:40.694Z,3.40
2018-04-29T06:56:40.705Z,3.90
2018-04-29T06:57:40.718Z,3.30
2018-04-29T06:58:40.737Z,4.80
2018-04-29T06:59:40.746Z,4.50
2018-04-29T07:00:40.761Z,2.30
2018-04-29T07:01:40.772Z,2.10
2018-04-29T07:02:40.786Z,2.60
2018-04-29T07:03:40.799Z,2.50
2018-04-29T07:04:40.815Z,4.20
2018-04-29T07:05:40.826Z,4.80
2018-04-29T07:06:40.839Z,5.00
2018-04-29T07:07:40.850Z,3.10
2018-04-29T07:08:40.864Z,3.80
2018-04-29T07:09:40.880Z,4.20
2018-04-29T07:10:40.895Z,3.60
2018-04-29T07:11:40.906Z,3.50
2018-04-29T07:12:40.922Z,1.50
2018-04-29T07:13:40.938Z,4.80
2018-04-29T07:14:40.945Z,3.30
2018-04-29T07:15:40.961Z,2.80
2018-04-29T07:16:40.976Z,3.40
2018-04-29T07:17:40.987Z,2.80
2018-04-29T07:18:41.006Z,4.30
2018-04-29T07:19:41.013Z,2.80
2018-04-29T07:20:41.027Z,2.70
2018-04-29T07:21:41.049Z,2.40
2018-04-29T07:22:41.052Z,2.50
2018-04-29T07:23:41.072Z,3.60
2018-04-29T07:24:41.084Z,2.40
2018-04-29T07:25:41.096Z,3.30
2018-04-29T07:26:41.111Z,3.60
2018-04-29T07:27:41.129Z,2.70
2018-04-29T07:28:41.145Z,4.90
2018-04-29T07:29:41.157Z,3.20
2018-04-29T07:30:41.165Z,2.90
2018-04-29T07:31:41.178Z,3.10
2018-04-29T07:32:41.191Z,2.20
2018-04-29T07:33:41.208Z,2.90
2018-04-29T07:34:41.219Z,4.70
2018-04-29T07:35:41.233Z,4.10
2018-04-29T07:36:41.248Z,6.50
2018-04-29T07:37:41.264Z,5.00
2018-04-29T07:38:41.322Z,4.20
2018-04-29T07:39:41.305Z,3.90
2018-04-29T07:40:41.303Z,4.10
2018-04-29T07:41:41.317Z,2.40
2018-04-29T07:42:41.333Z,4.00
2018-04-29T07:43:41.344Z,4.40
2018-04-29T07:44:41.357Z,2.70
2018-04-29T07:45:41.375Z,4.50
2018-04-29T07:46:41.387Z,4.10
2018-04-29T07:47:41.407Z,3.50
2018-04-29T07:48:41.413Z,3.30
2018-04-29T07:49:41.428Z,2.10
2018-04-29T07:50:41.443Z,6.00
2018-04-29T07:51:41.458Z,4.70
2018-04-29T07:52:41.545Z,4.70
2018-04-29T07:53:41.486Z,3.50
2018-04-29T07:54:41.499Z,4.80
2018-04-29T07:55:41.512Z,3.90
2018-04-29T07:56:41.527Z,4.40
2018-04-29T07:57:41.541Z,4.00
2018-04-29T07:58:41.557Z,3.70
2018-04-29T07:59:41.595Z,5.20
2018-04-29T08:00:41.635Z,3.10
2018-04-29T08:01:41.598Z,2.90
2018-04-29T08:02:41.617Z,4.50
2018-04-29T08:03:41.634Z,3.70
2018-04-29T08:04:41.642Z,2.90
2018-04-29T08:05:41.659Z,4.50
2018-04-29T08:06:41.676Z,4.20
2018-04-29T08:07:41.687Z,4.60
2018-04-29T08:08:41.701Z,7.10
2018-04-29T08:09:41.725Z,3.80
2018-04-29T08:10:41.732Z,8.30
2018-04-29T08:11:41.746Z,6.40
2018-04-29T08:12:41.759Z,5.80
2018-04-29T08:13:41.775Z,5.60
2018-04-29T08:14:41.790Z,6.00
2018-04-29T08:15:41.900Z,3.50
2018-04-29T08:16:41.818Z,5.20
2018-04-29T08:17:41.834Z,5.30
2018-04-29T08:18:41.850Z,12.00
2018-04-29T08:19:41.865Z,4.60
2018-04-29T08:20:41.879Z,2.90
2018-04-29T08:21:41.898Z,4.00
2018-04-29T08:22:41.934Z,5.90
2018-04-29T08:23:41.925Z,4.40
2018-04-29T08:24:41.940Z,4.90
2018-04-29T08:25:41.956Z,5.80
2018-04-29T08:26:41.970Z,3.40
2018-04-29T08:27:41.984Z,3.20
2018-04-29T08:28:42.003Z,4.60
2018-04-29T08:29:42.017Z,5.10
2018-04-29T08:30:42.035Z,4.50
2018-04-29T08:31:42.055Z,6.80
2018-04-29T08:32:42.063Z,3.20
2018-04-29T08:33:42.080Z,4.50
2018-04-29T08:34:42.093Z,4.50
2018-04-29T08:35:42.110Z,5.50
2018-04-29T08:36:42.124Z,4.30
2018-04-29T08:37:42.137Z,2.80
2018-04-29T08:38:42.155Z,3.30
2018-04-29T08:39:42.170Z,3.80
2018-04-29T08:40:42.188Z,5.90
2018-04-29T08:41:42.208Z,10.20
2018-04-29T08:42:42.216Z,6.70
2018-04-29T08:43:42.234Z,8.30
2018-04-29T08:44:42.245Z,9.20
2018-04-29T08:45:42.266Z,5.50
2018-04-29T08:46:42.282Z,4.40
2018-04-29T08:47:42.294Z,6.30
2018-04-29T08:48:42.350Z,4.00
2018-04-29T08:49:42.324Z,8.10
2018-04-29T08:50:42.341Z,5.60
2018-04-29T08:51:42.356Z,7.50
2018-04-29T08:52:42.369Z,5.20
2018-04-29T08:53:42.388Z,5.30
2018-04-29T08:54:42.401Z,8.60
2018-04-29T08:55:42.417Z,6.90
2018-04-29T08:56:42.431Z,7.40
2018-04-29T08:57:42.447Z,9.40
2018-04-29T08:58:42.466Z,6.30
2018-04-29T08:59:42.482Z,6.80
2018-04-29T09:00:42.496Z,5.20
2018-04-29T09:01:42.531Z,7.30
2018-04-29T09:02:42.526Z,4.70
2018-04-29T09:03:42.665Z,4.50
2018-04-29T09:04:42.554Z,5.50
2018-04-29T09:05:42.574Z,11.20
2018-04-29T09:06:42.588Z,4.90
2018-04-29T09:07:42.608Z,3.80
2018-04-29T09:08:42.620Z,5.90
2018-04-29T09:09:42.633Z,4.60
2018-04-29T09:10:42.652Z,4.20
2018-04-29T09:11:42.674Z,6.10
2018-04-29T09:12:42.681Z,6.20
2018-04-29T09:13:42.697Z,10.50
2018-04-29T09:14:42.714Z,3.70
2018-04-29T09:15:42.728Z,5.90
2018-04-29T09:16:42.746Z,6.20
2018-04-29T09:17:42.775Z,7.30
2018-04-29T09:18:42.776Z,6.10
2018-04-29T09:19:42.790Z,6.50
2018-04-29T09:20:42.811Z,7.80
2018-04-29T09:21:42.821Z,6.40
2018-04-29T09:22:42.839Z,8.40
2018-04-29T09:23:42.854Z,9.50
2018-04-29T09:24:42.869Z,5.10
2018-04-29T09:25:42.886Z,5.40
2018-04-29T09:26:42.904Z,9.70
2018-04-29T09:27:42.918Z,6.30
2018-04-29T09:28:42.932Z,7.70
2018-04-29T09:29:42.951Z,7.20
2018-04-29T09:30:42.967Z,6.80
2018-04-29T09:31:42.983Z,7.40
2018-04-29T09:32:43.000Z,7.50
2018-04-29T09:33:43.013Z,5.70
2018-04-29T09:34:43.029Z,7.50
2018-04-29T09:35:43.044Z,3.80
2018-04-29T09:36:43.063Z,5.00
2018-04-29T09:37:43.081Z,4.30
2018-04-29T09:38:43.094Z,6.50
2018-04-29T09:39:43.112Z,10.10
2018-04-29T09:40:43.126Z,7.20
2018-04-29T09:41:43.149Z,6.40
2018-04-29T09:42:43.162Z,9.50
2018-04-29T09:43:43.218Z,5.70
2018-04-29T09:44:43.194Z,4.30
2018-04-29T09:45:43.212Z,7.70
2018-04-29T09:46:43.228Z,5.30
2018-04-29T09:47:43.245Z,5.00
2018-04-29T09:48:43.362Z,6.20
2018-04-29T09:49:43.279Z,7.10
2018-04-29T09:50:43.305Z,5.70
2018-04-29T09:51:43.316Z,3.50
2018-04-29T09:52:43.332Z,7.60
2018-04-29T09:53:43.349Z,5.40
2018-04-29T09:54:43.363Z,4.90
2018-04-29T09:55:43.384Z,7.20
2018-04-29T09:56:43.399Z,3.20
2018-04-29T09:57:43.417Z,5.40
2018-04-29T09:58:43.435Z,4.40
2018-04-29T09:59:43.451Z,9.00
2018-04-29T10:00:43.468Z,4.20
2018-04-29T10:01:43.487Z,6.10
2018-04-29T10:02:43.505Z,5.60
2018-04-29T10:03:43.522Z,7.20
2018-04-29T10:04:43.539Z,8.10
2018-04-29T10:05:43.554Z,3.20
2018-04-29T10:06:43.572Z,5.70
2018-04-29T10:07:43.596Z,6.20
2018-04-29T10:08:43.609Z,5.90
2018-04-29T10:09:43.630Z,5.60
2018-04-29T10:10:43.642Z,2.70
2018-04-29T10:11:43.666Z,5.10
2018-04-29T10:12:43.674Z,4.40
2018-04-29T10:13:43.701Z,5.50
2018-04-29T10:14:43.709Z,7.40
2018-04-29T10:15:43.725Z,4.60
2018-04-29T10:16:43.742Z,7.10
2018-04-29T10:17:43.762Z,4.80
2018-04-29T10:18:43.832Z,5.80
2018-04-29T10:19:43.795Z,5.50
2018-04-29T10:20:43.811Z,6.00
2018-04-29T10:21:43.826Z,4.40
2018-04-29T10:22:43.845Z,7.30
2018-04-29T10:23:43.862Z,4.30
2018-04-29T10:24:43.981Z,3.10
2018-04-29T10:25:43.894Z,5.00
2018-04-29T10:26:43.914Z,5.60
2018-04-29T10:27:43.931Z,4.10
2018-04-29T10:28:43.952Z,4.40
2018-04-29T10:29:43.965Z,5.30
2018-04-29T10:30:43.978Z,7.10
2018-04-29T10:31:43.996Z,4.20
2018-04-29T10:32:44.066Z,5.00
2018-04-29T10:33:44.029Z,5.60
2018-04-29T10:34:44.058Z,4.40
2018-04-29T10:35:44.064Z,4.10
2018-04-29T10:36:44.078Z,4.60
2018-04-29T10:37:44.097Z,6.60
2018-04-29T10:38:44.111Z,5.10
2018-04-29T10:39:44.128Z,4.70
2018-04-29T10:40:44.147Z,5.80
2018-04-29T10:41:44.162Z,5.80
2018-04-29T10:42:44.179Z,7.90
2018-04-29T10:43:44.195Z,4.90
2018-04-29T10:44:44.217Z,6.90
2018-04-29T10:45:44.229Z,6.60
2018-04-29T10:46:44.252Z,2.90
2018-04-29T10:47:44.263Z,4.40
2018-04-29T10:48:44.280Z,6.30
2018-04-29T10:49:44.298Z,4.70
2018-04-29T10:50:44.312Z,5.90
2018-04-29T10:51:44.331Z,7.40
2018-04-29T10:52:44.346Z,4.50
2018-04-29T10:53:44.362Z,5.70
2018-04-29T10:54:44.632Z,3.80
2018-04-29T10:55:44.397Z,5.30
2018-04-29T10:56:44.465Z,7.30
2018-04-29T10:57:44.431Z,8.70
2018-04-29T10:58:44.466Z,5.20
2018-04-29T10:59:44.464Z,5.90
2018-04-29T11:00:44.482Z,6.70
2018-04-29T11:01:44.497Z,5.50
2018-04-29T11:02:44.520Z,7.60
2018-04-29T11:03:44.537Z,4.60
2018-04-29T11:04:44.550Z,5.90
2018-04-29T11:05:44.567Z,4.80
2018-04-29T11:06:44.585Z,5.80
2018-04-29T11:07:44.601Z,8.30
2018-04-29T11:08:44.619Z,4.30
2018-04-29T11:09:44.638Z,4.80
2018-04-29T11:10:44.658Z,8.40
2018-04-29T11:11:44.751Z,5.60
2018-04-29T11:12:44.690Z,5.90
2018-04-29T11:13:44.708Z,7.70
2018-04-29T11:14:44.741Z,4.20
2018-04-29T11:15:44.741Z,5.90
2018-04-29T11:16:44.758Z,3.80
2018-04-29T11:17:44.775Z,6.50
2018-04-29T11:18:44.791Z,7.50
2018-04-29T11:19:44.809Z,3.40
2018-04-29T11:20:44.824Z,6.80
2018-04-29T11:21:44.842Z,7.20
2018-04-29T11:22:44.862Z,7.60
2018-04-29T11:23:44.878Z,7.60
2018-04-29T11:24:44.893Z,6.00
2018-04-29T11:25:44.914Z,7.80
2018-04-29T11:26:44.931Z,5.30
2018-04-29T11:27:44.948Z,3.50
2018-04-29T11:28:44.968Z,6.30
2018-04-29T11:29:44.983Z,4.10
2018-04-29T11:30:45.000Z,8.00
2018-04-29T11:31:45.023Z,7.80
2018-04-29T11:32:45.034Z,7.00
2018-04-29T11:33:45.055Z,8.90
2018-04-29T11:34:45.071Z,7.80
2018-04-29T11:35:45.088Z,6.00
2018-04-29T11:36:45.102Z,7.80
2018-04-29T11:37:45.122Z,10.00
2018-04-29T11:38:45.137Z,8.70
2018-04-29T11:39:45.159Z,5.30
2018-04-29T11:40:45.171Z,7.90
2018-04-29T11:41:45.190Z,8.10
2018-04-29T11:42:45.206Z,9.00
2018-04-29T11:43:45.222Z,8.30
2018-04-29T11:44:45.234Z,12.60
2018-04-29T11:45:45.259Z,8.30
2018-04-29T11:46:45.274Z,5.50
2018-04-29T11:47:45.286Z,7.70
2018-04-29T11:48:45.306Z,4.90
2018-04-29T11:49:45.328Z,10.20
2018-04-29T11:50:45.336Z,10.00
2018-04-29T11:51:45.352Z,9.00
2018-04-29T11:52:45.371Z,6.40
2018-04-29T11:53:45.384Z,9.10
2018-04-29T11:54:45.407Z,12.40
2018-04-29T11:55:45.421Z,10.80
2018-04-29T11:56:45.440Z,8.90
2018-04-29T11:57:45.453Z,7.30
2018-04-29T11:58:45.468Z,7.20
2018-04-29T11:59:45.497Z,5.90
2018-04-29T12:00:45.499Z,8.70
2018-04-29T12:01:45.516Z,8.40
2018-04-29T12:02:45.536Z,8.40
2018-04-29T12:03:45.551Z,8.20
2018-04-29T12:04:45.569Z,9.00
2018-04-29T12:05:45.587Z,11.10
2018-04-29T12:06:45.605Z,10.00
2018-04-29T12:07:45.618Z,9.30
2018-04-29T12:08:45.637Z,6.10
2018-04-29T12:09:45.669Z,6.20
2018-04-29T12:10:45.668Z,9.20
2018-04-29T12:11:45.683Z,7.70
2018-04-29T12:12:45.699Z,9.20
2018-04-29T12:13:45.716Z,4.90
2018-04-29T12:14:45.733Z,6.90
2018-04-29T12:15:45.748Z,12.00
2018-04-29T12:16:45.764Z,6.80
2018-04-29T12:17:45.781Z,11.80
2018-04-29T12:18:45.801Z,10.80
2018-04-29T12:19:45.817Z,10.00
2018-04-29T12:20:45.832Z,8.80
2018-04-29T12:21:45.846Z,6.60
2018-04-29T12:22:45.864Z,6.90
2018-04-29T12:23:45.882Z,9.20
2018-04-29T12:24:45.899Z,6.90
2018-04-29T12:25:45.914Z,7.40
2018-04-29T12:26:45.931Z,8.40
2018-04-29T12:27:45.944Z,8.40
2018-04-29T12:28:45.962Z,8.90
2018-04-29T12:29:45.976Z,10.30
2018-04-29T12:30:45.995Z,10.70
2018-04-29T12:31:46.009Z,11.30
2018-04-29T12:32:46.025Z,7.20
2018-04-29T12:33:46.154Z,8.70
2018-04-29T12:34:46.058Z,9.30
2018-04-29T12:35:46.074Z,8.30
2018-04-29T12:36:46.091Z,9.00
2018-04-29T12:37:46.105Z,9.90
2018-04-29T12:38:46.124Z,9.50
2018-04-29T12:39:46.186Z,9.00
2018-04-29T12:40:46.158Z,11.90
2018-04-29T12:41:46.174Z,8.00
2018-04-29T12:42:46.191Z,8.70
2018-04-29T12:43:46.209Z,9.20
2018-04-29T12:44:46.226Z,8.90
2018-04-29T12:45:46.243Z,8.70
2018-04-29T12:46:46.364Z,10.20
2018-04-29T12:47:46.287Z,6.30
2018-04-29T12:48:46.292Z,11.40
2018-04-29T12:49:46.308Z,9.30
2018-04-29T12:50:46.326Z,5.80
2018-04-29T12:51:46.344Z,11.30
2018-04-29T12:52:46.358Z,11.20
2018-04-29T12:53:46.378Z,8.20
2018-04-29T12:54:46.402Z,11.30
2018-04-29T12:55:46.409Z,8.10
2018-04-29T12:56:46.427Z,6.40
2018-04-29T12:57:46.444Z,6.90
2018-04-29T12:58:46.469Z,9.80
2018-04-29T12:59:46.482Z,9.80
2018-04-29T13:00:46.501Z,9.00
2018-04-29T13:01:46.515Z,6.90
2018-04-29T13:02:46.531Z,6.30
2018-04-29T13:03:46.554Z,7.80
2018-04-29T13:04:46.569Z,7.90
2018-04-29T13:05:46.694Z,6.40
2018-04-29T13:06:46.603Z,6.30
2018-04-29T13:07:46.619Z,9.30
2018-04-29T13:08:46.633Z,10.20
2018-04-29T13:09:46.654Z,7.30
2018-04-29T13:10:46.671Z,11.80
2018-04-29T13:11:46.689Z,6.80
2018-04-29T13:12:46.703Z,6.80
2018-04-29T13:13:46.721Z,8.00
2018-04-29T13:14:46.740Z,8.40
2018-04-29T13:15:46.758Z,6.80
2018-04-29T13:16:46.774Z,7.30
2018-04-29T13:17:46.793Z,7.60
2018-04-29T13:18:46.810Z,8.20